createdAt,value
2019-01-08T00:00:42.399Z,1002.17
2019-01-08T00:01:42.385Z,1002.15
2019-01-08T00:02:42.401Z,1002.17
2019-01-08T00:03:42.372Z,1002.25
2019-01-08T00:04:42.348Z,1002.25
2019-01-08T00:05:42.339Z,1002.21
2019-01-08T00:06:42.329Z,1002.21
2019-01-08T00:07:42.337Z,1002.21
2019-01-08T00:08:42.313Z,1002.12
2019-01-08T00:09:42.299Z,1002.09
2019-01-08T00:10:42.286Z,1002.03
2019-01-08T00:11:42.278Z,1002.24
2019-01-08T00:12:42.287Z,1002.14
2019-01-08T00:13:42.258Z,1002.12
2019-01-08T00:14:42.249Z,1002.20
2019-01-08T00:15:42.236Z,1002.21
2019-01-08T00:16:42.219Z,1002.08
2019-01-08T00:17:42.323Z,1001.92
2019-01-08T00:18:42.210Z,1002.05
2019-01-08T00:19:42.188Z,1002.00
2019-01-08T00:20:42.182Z,1001.99
2019-01-08T00:21:42.170Z,1002.01
2019-01-08T00:22:42.177Z,1001.97
2019-01-08T00:23:42.155Z,1002.11
2019-01-08T00:24:42.133Z,1002.10
2019-01-08T00:25:42.124Z,1002.07
2019-01-08T00:26:42.116Z,1002.22
2019-01-08T00:27:42.139Z,1002.16
2019-01-08T00:28:43.333Z,1002.22
2019-01-08T00:29:42.976Z,1002.20
2019-01-08T00:30:42.070Z,1002.24
2019-01-08T00:31:42.058Z,1002.10
2019-01-08T00:32:42.055Z,1002.14
2019-01-08T00:33:42.066Z,1002.08
2019-01-08T00:34:42.029Z,1002.10
2019-01-08T00:35:42.028Z,1002.04
2019-01-08T00:36:42.004Z,1002.00
2019-01-08T00:37:41.995Z,1002.04
2019-01-08T00:38:41.990Z,1002.04
2019-01-08T00:39:42.012Z,1002.04
2019-01-08T00:40:41.994Z,1002.15
2019-01-08T00:41:41.955Z,1002.09
2019-01-08T00:42:41.941Z,1002.15
2019-01-08T00:43:41.946Z,1002.06
2019-01-08T00:44:41.931Z,1002.15
2019-01-08T00:45:41.912Z,1002.07
2019-01-08T00:46:41.900Z,1002.07
2019-01-08T00:47:41.918Z,1001.96
2019-01-08T00:48:41.874Z,1002.15
2019-01-08T00:49:41.866Z,1002.02
2019-01-08T00:50:41.855Z,1002.10
2019-01-08T00:51:41.843Z,1001.97
2019-01-08T00:52:41.847Z,1002.20
2019-01-08T00:53:41.845Z,1002.16
2019-01-08T00:54:41.814Z,1002.14
2019-01-08T00:55:41.806Z,1002.16
2019-01-08T00:56:41.793Z,1002.15
2019-01-08T00:57:41.784Z,1002.11
2019-01-08T00:58:41.789Z,1002.19
2019-01-08T00:59:41.770Z,1002.15
2019-01-08T01:00:41.749Z,1002.10
2019-01-08T01:01:41.736Z,1002.19
2019-01-08T01:02:41.726Z,1002.18
2019-01-08T01:03:42.382Z,1002.09
2019-01-08T01:04:41.708Z,1002.15
2019-01-08T01:05:41.706Z,1002.16
2019-01-08T01:06:41.685Z,1002.13
2019-01-08T01:07:41.678Z,1002.09
2019-01-08T01:08:41.679Z,1002.13
2019-01-08T01:09:41.681Z,1002.12
2019-01-08T01:10:41.641Z,1002.14
2019-01-08T01:11:41.628Z,1002.09
2019-01-08T01:12:41.624Z,1002.03
2019-01-08T01:13:41.639Z,1002.01
2019-01-08T01:14:41.597Z,1002.01
2019-01-08T01:15:41.588Z,1001.97
2019-01-08T01:16:41.584Z,1001.92
2019-01-08T01:17:41.569Z,1001.98
2019-01-08T01:18:41.560Z,1001.93
2019-01-08T01:19:41.569Z,1001.87
2019-01-08T01:20:41.531Z,1001.91
2019-01-08T01:21:41.524Z,1001.90
2019-01-08T01:22:41.539Z,1001.92
2019-01-08T01:23:41.508Z,1001.90
2019-01-08T01:24:41.516Z,1001.85
2019-01-08T01:25:41.573Z,1001.86
2019-01-08T01:26:41.473Z,1001.85
2019-01-08T01:27:41.463Z,1001.90
2019-01-08T01:28:41.446Z,1001.84
2019-01-08T01:29:41.456Z,1001.83
2019-01-08T01:30:41.489Z,1001.81
2019-01-08T01:31:41.420Z,1001.79
2019-01-08T01:32:41.404Z,1001.75
2019-01-08T01:33:41.422Z,1001.75
2019-01-08T01:34:41.385Z,1001.74
2019-01-08T01:35:41.390Z,1001.74
2019-01-08T01:36:41.368Z,1001.74
2019-01-08T01:37:41.354Z,1001.72
2019-01-08T01:38:41.356Z,1001.72
2019-01-08T01:39:41.354Z,1001.75
2019-01-08T01:40:41.337Z,1001.70
2019-01-08T01:41:41.310Z,1001.73
2019-01-08T01:42:41.298Z,1001.71
2019-01-08T01:43:41.288Z,1001.76
2019-01-08T01:44:41.280Z,1001.81
2019-01-08T01:45:41.289Z,1001.73
2019-01-08T01:46:41.255Z,1001.76
2019-01-08T01:47:41.250Z,1001.75
2019-01-08T01:48:41.260Z,1001.72
2019-01-08T01:49:41.229Z,1001.71
2019-01-08T01:50:41.217Z,1001.74
2019-01-08T01:51:41.228Z,1001.77
2019-01-08T01:52:41.195Z,1001.69
2019-01-08T01:53:41.182Z,1001.72
2019-01-08T01:54:41.187Z,1001.74
2019-01-08T01:55:41.165Z,1001.75
2019-01-08T01:56:41.174Z,1001.70
2019-01-08T01:57:41.145Z,1001.75
2019-01-08T01:58:41.133Z,1001.73
2019-01-08T01:59:41.148Z,1001.74
2019-01-08T02:00:41.110Z,1001.73
2019-01-08T02:01:41.095Z,1001.65
2019-01-08T02:02:41.091Z,1001.69
2019-01-08T02:03:41.082Z,1001.65
2019-01-08T02:04:41.100Z,1001.78
2019-01-08T02:05:41.088Z,1001.75
2019-01-08T02:06:41.041Z,1001.76
2019-01-08T02:07:41.064Z,1001.73
2019-01-08T02:08:41.024Z,1001.72
2019-01-08T02:09:41.016Z,1001.74
2019-01-08T02:10:41.009Z,1001.72
2019-01-08T02:11:40.991Z,1001.70
2019-01-08T02:12:40.979Z,1001.67
2019-01-08T02:13:41.001Z,1001.72
2019-01-08T02:14:40.959Z,1001.69
2019-01-08T02:15:40.947Z,1001.71
2019-01-08T02:16:40.942Z,1001.77
2019-01-08T02:17:40.930Z,1001.73
2019-01-08T02:18:40.929Z,1001.74
2019-01-08T02:19:40.903Z,1001.70
2019-01-08T02:20:40.896Z,1001.73
2019-01-08T02:21:40.889Z,1001.74
2019-01-08T02:22:40.876Z,1001.69
2019-01-08T02:23:40.884Z,1001.67
2019-01-08T02:24:40.851Z,1001.70
2019-01-08T02:25:40.858Z,1001.62
2019-01-08T02:26:40.826Z,1001.63
2019-01-08T02:27:40.819Z,1001.62
2019-01-08T02:28:40.809Z,1001.58
2019-01-08T02:29:40.827Z,1001.55
2019-01-08T02:30:40.807Z,1001.58
2019-01-08T02:31:40.797Z,1001.62
2019-01-08T02:32:40.763Z,1001.63
2019-01-08T02:33:40.752Z,1001.56
2019-01-08T02:34:40.796Z,1001.53
2019-01-08T02:35:40.753Z,1001.53
2019-01-08T02:36:40.740Z,1001.50
2019-01-08T02:37:40.709Z,1001.44
2019-01-08T02:38:40.699Z,1001.46
2019-01-08T02:39:40.691Z,1001.52
2019-01-08T02:40:40.688Z,1001.47
2019-01-08T02:41:40.707Z,1001.49
2019-01-08T02:42:40.663Z,1001.48
2019-01-08T02:43:40.650Z,1001.51
2019-01-08T02:44:40.708Z,1001.53
2019-01-08T02:45:40.656Z,1001.50
2019-01-08T02:46:40.746Z,1001.50
2019-01-08T02:47:40.605Z,1001.47
2019-01-08T02:48:40.605Z,1001.40
2019-01-08T02:49:40.587Z,1001.46
2019-01-08T02:50:40.603Z,1001.48
2019-01-08T02:51:40.560Z,1001.40
2019-01-08T02:52:40.553Z,1001.46
2019-01-08T02:53:40.541Z,1001.45
2019-01-08T02:54:40.625Z,1001.47
2019-01-08T02:55:40.522Z,1001.40
2019-01-08T02:56:40.522Z,1001.45
2019-01-08T02:57:40.505Z,1001.43
2019-01-08T02:58:40.512Z,1001.40
2019-01-08T02:59:40.496Z,1001.43
2019-01-08T03:00:40.473Z,1001.40
2019-01-08T03:01:40.458Z,1001.42
2019-01-08T03:02:40.470Z,1001.41
2019-01-08T03:03:40.440Z,1001.40
2019-01-08T03:04:40.418Z,1001.38
2019-01-08T03:05:40.419Z,1001.39
2019-01-08T03:06:40.407Z,1001.33
2019-01-08T03:07:40.395Z,1001.41
2019-01-08T03:08:40.394Z,1001.31
2019-01-08T03:09:40.366Z,1001.39
2019-01-08T03:10:40.358Z,1001.30
2019-01-08T03:11:40.344Z,1001.37
2019-01-08T03:12:40.346Z,1001.29
2019-01-08T03:13:40.344Z,1001.27
2019-01-08T03:14:40.316Z,1001.28
2019-01-08T03:15:40.315Z,1001.18
2019-01-08T03:16:40.289Z,1001.22
2019-01-08T03:17:40.288Z,1001.20
2019-01-08T03:18:40.287Z,1001.10
2019-01-08T03:19:40.267Z,1001.13
2019-01-08T03:20:40.253Z,1001.04
2019-01-08T03:21:40.241Z,1001.16
2019-01-08T03:22:40.248Z,1001.10
2019-01-08T03:23:40.235Z,1001.06
2019-01-08T03:24:40.215Z,1000.99
2019-01-08T03:25:40.199Z,1000.98
2019-01-08T03:26:40.188Z,1000.89
2019-01-08T03:27:40.196Z,1001.02
2019-01-08T03:28:40.186Z,1001.01
2019-01-08T03:29:40.152Z,1001.05
2019-01-08T03:30:40.145Z,1000.99
2019-01-08T03:31:40.152Z,1001.02
2019-01-08T03:32:40.126Z,1000.94
2019-01-08T03:33:40.112Z,1000.96
2019-01-08T03:34:40.101Z,1000.98
2019-01-08T03:35:40.112Z,1000.96
2019-01-08T03:36:40.076Z,1000.84
2019-01-08T03:37:40.067Z,1000.86
2019-01-08T03:38:40.058Z,1000.80
2019-01-08T03:39:40.051Z,1000.83
2019-01-08T03:40:40.054Z,1000.76
2019-01-08T03:41:40.031Z,1000.71
2019-01-08T03:42:40.013Z,1000.79
2019-01-08T03:43:40.001Z,1000.64
2019-01-08T03:44:39.996Z,1000.67
2019-01-08T03:45:40.010Z,1000.65
2019-01-08T03:46:39.973Z,1000.64
2019-01-08T03:47:39.964Z,1000.63
2019-01-08T03:48:39.955Z,1000.63
2019-01-08T03:49:39.938Z,1000.59
2019-01-08T03:50:39.944Z,1000.54
2019-01-08T03:51:39.917Z,1000.62
2019-01-08T03:52:39.913Z,1000.53
2019-01-08T03:53:39.898Z,1000.54
2019-01-08T03:54:39.885Z,1000.52
2019-01-08T03:55:39.897Z,1000.46
2019-01-08T03:56:39.869Z,1000.57
2019-01-08T03:57:39.856Z,1000.45
2019-01-08T03:58:39.846Z,1000.50
2019-01-08T03:59:42.079Z,1000.53
2019-01-08T04:00:39.821Z,1000.47
2019-01-08T04:01:39.828Z,1000.43
2019-01-08T04:02:39.802Z,1000.45
2019-01-08T04:03:39.807Z,1000.47
2019-01-08T04:04:39.784Z,1000.44
2019-01-08T04:05:39.781Z,1000.47
2019-01-08T04:06:39.783Z,1000.51
2019-01-08T04:07:39.768Z,1000.52
2019-01-08T04:08:39.738Z,1000.40
2019-01-08T04:09:39.726Z,1000.43
2019-01-08T04:10:39.737Z,1000.48
2019-01-08T04:11:39.707Z,1000.38
2019-01-08T04:12:39.719Z,1000.32
2019-01-08T04:13:39.684Z,1000.33
2019-01-08T04:14:39.672Z,1000.38
2019-01-08T04:15:39.658Z,1000.29
2019-01-08T04:16:39.655Z,1000.28
2019-01-08T04:17:39.644Z,1000.25
2019-01-08T04:18:39.649Z,1000.20
2019-01-08T04:19:39.622Z,1000.15
2019-01-08T04:20:39.607Z,1000.24
2019-01-08T04:21:39.596Z,1000.19
2019-01-08T04:22:39.593Z,1000.26
2019-01-08T04:23:39.592Z,1000.23
2019-01-08T04:24:39.571Z,1000.12
2019-01-08T04:25:39.557Z,1000.21
2019-01-08T04:26:39.544Z,1000.14
2019-01-08T04:27:39.535Z,1000.09
2019-01-08T04:28:39.551Z,1000.00
2019-01-08T04:29:39.517Z,1000.04
2019-01-08T04:30:39.506Z,999.96
2019-01-08T04:31:39.494Z,999.99
2019-01-08T04:32:39.477Z,999.91
2019-01-08T04:33:39.468Z,1000.03
2019-01-08T04:34:39.478Z,999.98
2019-01-08T04:35:39.449Z,999.93
2019-01-08T04:36:39.440Z,999.89
2019-01-08T04:37:39.426Z,999.83
2019-01-08T04:38:39.435Z,999.73
2019-01-08T04:39:39.429Z,999.74
2019-01-08T04:40:39.427Z,999.71
2019-01-08T04:41:39.382Z,999.74
2019-01-08T04:42:39.375Z,999.77
2019-01-08T04:43:39.371Z,999.69
2019-01-08T04:44:39.347Z,999.73
2019-01-08T04:45:39.340Z,999.74
2019-01-08T04:46:39.351Z,999.69
2019-01-08T04:47:39.326Z,999.71
2019-01-08T04:48:39.313Z,999.73
2019-01-08T04:49:39.308Z,999.72
2019-01-08T04:50:39.288Z,999.73
2019-01-08T04:51:39.324Z,999.67
2019-01-08T04:52:39.295Z,999.76
2019-01-08T04:53:39.254Z,999.61
2019-01-08T04:54:39.245Z,999.50
2019-01-08T04:55:39.243Z,999.49
2019-01-08T04:56:39.253Z,999.47
2019-01-08T04:57:39.216Z,999.42
2019-01-08T04:58:39.201Z,999.38
2019-01-08T04:59:39.188Z,999.33
2019-01-08T05:00:39.192Z,999.23
2019-01-08T05:01:39.198Z,999.28
2019-01-08T05:02:39.160Z,999.23
2019-01-08T05:03:39.150Z,999.25
2019-01-08T05:04:39.152Z,999.24
2019-01-08T05:05:39.125Z,999.21
2019-01-08T05:06:39.115Z,999.24
2019-01-08T05:07:39.128Z,999.17
2019-01-08T05:08:39.122Z,999.29
2019-01-08T05:09:39.089Z,999.26
2019-01-08T05:10:39.074Z,999.14
2019-01-08T05:11:39.069Z,999.09
2019-01-08T05:12:39.053Z,999.04
2019-01-08T05:13:39.063Z,999.04
2019-01-08T05:14:39.032Z,999.07
2019-01-08T05:15:39.023Z,999.11
2019-01-08T05:16:39.010Z,999.09
2019-01-08T05:17:38.997Z,999.11
2019-01-08T05:18:38.990Z,999.05
2019-01-08T05:19:38.999Z,999.11
2019-01-08T05:20:38.969Z,999.02
2019-01-08T05:21:38.956Z,999.06
2019-01-08T05:22:38.950Z,999.09
2019-01-08T05:23:38.937Z,999.09
2019-01-08T05:24:38.919Z,999.06
2019-01-08T05:25:38.931Z,999.04
2019-01-08T05:26:38.918Z,998.94
2019-01-08T05:27:38.890Z,998.92
2019-01-08T05:28:38.907Z,998.79
2019-01-08T05:29:38.871Z,998.71
2019-01-08T05:30:38.858Z,998.84
2019-01-08T05:31:38.847Z,998.64
2019-01-08T05:32:38.841Z,998.59
2019-01-08T05:33:38.834Z,998.63
2019-01-08T05:34:38.855Z,998.59
2019-01-08T05:35:38.809Z,998.52
2019-01-08T05:36:38.793Z,998.64
2019-01-08T05:37:38.783Z,998.53
2019-01-08T05:38:38.772Z,998.67
2019-01-08T05:39:38.758Z,998.77
2019-01-08T05:40:38.774Z,998.51
2019-01-08T05:41:38.743Z,998.72
2019-01-08T05:42:38.737Z,998.71
2019-01-08T05:43:38.723Z,998.54
2019-01-08T05:44:38.706Z,998.55
2019-01-08T05:45:38.739Z,998.65
2019-01-08T05:46:38.706Z,998.56
2019-01-08T05:47:38.684Z,998.68
2019-01-08T05:48:38.664Z,998.41
2019-01-08T05:49:38.655Z,998.47
2019-01-08T05:50:38.673Z,998.56
2019-01-08T05:51:38.653Z,998.59
2019-01-08T05:52:38.629Z,998.50
2019-01-08T05:53:38.615Z,998.43
2019-01-08T05:54:38.603Z,998.59
2019-01-08T05:55:38.618Z,998.67
2019-01-08T05:56:38.683Z,998.63
2019-01-08T05:57:38.572Z,998.64
2019-01-08T05:58:38.562Z,998.62
2019-01-08T05:59:38.555Z,998.65
2019-01-08T06:00:38.537Z,998.68
2019-01-08T06:01:38.552Z,998.73
2019-01-08T06:02:38.518Z,998.74
2019-01-08T06:03:38.514Z,998.80
2019-01-08T06:04:38.493Z,998.79
2019-01-08T06:05:38.483Z,998.84
2019-01-08T06:06:38.474Z,998.93
2019-01-08T06:07:38.482Z,998.98
2019-01-08T06:08:38.459Z,998.85
2019-01-08T06:09:38.443Z,998.73
2019-01-08T06:10:38.434Z,998.62
2019-01-08T06:11:38.424Z,998.74
2019-01-08T06:12:38.436Z,998.69
2019-01-08T06:13:38.398Z,998.59
2019-01-08T06:14:38.388Z,998.58
2019-01-08T06:15:38.374Z,998.58
2019-01-08T06:16:38.383Z,998.58
2019-01-08T06:17:38.357Z,998.55
2019-01-08T06:18:38.361Z,998.61
2019-01-08T06:19:38.333Z,998.54
2019-01-08T06:20:38.352Z,998.51
2019-01-08T06:21:38.314Z,998.43
2019-01-08T06:22:38.303Z,998.56
2019-01-08T06:23:38.295Z,998.52
2019-01-08T06:24:38.285Z,998.53
2019-01-08T06:25:38.268Z,998.53
2019-01-08T06:26:38.279Z,998.53
2019-01-08T06:27:38.248Z,998.54
2019-01-08T06:28:38.254Z,998.57
2019-01-08T06:29:38.231Z,998.60
2019-01-08T06:30:38.217Z,998.53
2019-01-08T06:31:38.228Z,998.57
2019-01-08T06:32:38.192Z,998.53
2019-01-08T06:33:38.189Z,998.51
2019-01-08T06:34:38.175Z,998.61
2019-01-08T06:35:38.167Z,998.52
2019-01-08T06:36:38.166Z,998.47
2019-01-08T06:37:38.141Z,998.45
2019-01-08T06:38:38.129Z,998.47
2019-01-08T06:39:38.138Z,998.49
2019-01-08T06:40:38.113Z,998.45
2019-01-08T06:41:38.126Z,998.49
2019-01-08T06:42:38.095Z,998.46
2019-01-08T06:43:38.081Z,998.46
2019-01-08T06:44:38.064Z,998.45
2019-01-08T06:45:38.057Z,998.38
2019-01-08T06:46:43.046Z,998.48
2019-01-08T06:47:39.049Z,998.47
2019-01-08T06:48:38.029Z,998.48
2019-01-08T06:49:38.023Z,998.52
2019-01-08T06:50:38.002Z,998.37
2019-01-08T06:51:38.013Z,998.45
2019-01-08T06:52:37.988Z,998.57
2019-01-08T06:53:37.982Z,998.48
2019-01-08T06:54:37.963Z,998.49
2019-01-08T06:55:37.953Z,998.53
2019-01-08T06:56:37.935Z,998.58
2019-01-08T06:57:37.956Z,998.66
2019-01-08T06:58:37.930Z,998.55
2019-01-08T06:59:37.904Z,998.51
2019-01-08T07:00:37.900Z,998.58
2019-01-08T07:01:37.888Z,998.54
2019-01-08T07:02:38.427Z,998.56
2019-01-08T07:03:37.869Z,998.54
2019-01-08T07:04:37.851Z,998.50
2019-01-08T07:05:37.843Z,998.55
2019-01-08T07:06:37.839Z,998.44
2019-01-08T07:07:37.830Z,998.44
2019-01-08T07:08:37.826Z,998.52
2019-01-08T07:09:37.802Z,998.50
2019-01-08T07:10:37.810Z,998.36
2019-01-08T07:11:37.779Z,998.35
2019-01-08T07:12:37.802Z,998.39
2019-01-08T07:13:37.759Z,998.36
2019-01-08T07:14:37.751Z,998.50
2019-01-08T07:15:37.741Z,998.51
2019-01-08T07:16:37.726Z,998.39
2019-01-08T07:17:37.719Z,998.31
2019-01-08T07:18:37.722Z,998.30
2019-01-08T07:19:37.694Z,998.36
2019-01-08T07:20:37.687Z,998.32
2019-01-08T07:21:37.699Z,998.28
2019-01-08T07:22:37.661Z,998.26
2019-01-08T07:23:37.683Z,998.36
2019-01-08T07:24:37.645Z,998.33
2019-01-08T07:25:42.164Z,998.34
2019-01-08T07:26:37.624Z,998.35
2019-01-08T07:27:37.613Z,998.37
2019-01-08T07:28:37.638Z,998.34
2019-01-08T07:29:37.645Z,998.33
2019-01-08T07:30:41.697Z,998.37
2019-01-08T07:31:37.572Z,998.35
2019-01-08T07:32:37.572Z,998.32
2019-01-08T07:33:37.554Z,998.23
2019-01-08T07:34:37.556Z,998.34
2019-01-08T07:35:37.527Z,998.31
2019-01-08T07:36:37.516Z,998.21
2019-01-08T07:37:37.509Z,998.29
2019-01-08T07:38:37.498Z,998.23
2019-01-08T07:39:37.511Z,998.24
2019-01-08T07:40:37.468Z,998.24
2019-01-08T07:41:37.459Z,998.22
2019-01-08T07:42:37.464Z,998.15
2019-01-08T07:43:37.439Z,998.19
2019-01-08T07:44:37.434Z,998.25
2019-01-08T07:45:37.443Z,998.29
2019-01-08T07:46:37.411Z,998.19
2019-01-08T07:47:37.399Z,998.16
2019-01-08T07:48:37.388Z,998.16
2019-01-08T07:49:37.403Z,998.21
2019-01-08T07:50:37.403Z,998.21
2019-01-08T07:51:37.423Z,998.21
2019-01-08T07:52:37.347Z,998.20
2019-01-08T07:53:37.334Z,998.20
2019-01-08T07:54:37.320Z,998.13
2019-01-08T07:55:37.357Z,998.11
2019-01-08T07:56:37.303Z,998.12
2019-01-08T07:57:37.318Z,998.09
2019-01-08T07:58:37.280Z,998.11
2019-01-08T07:59:37.277Z,997.99
2019-01-08T08:00:37.258Z,998.08
2019-01-08T08:01:37.266Z,998.11
2019-01-08T08:02:37.234Z,998.06
2019-01-08T08:03:37.273Z,998.07
2019-01-08T08:04:37.247Z,997.98
2019-01-08T08:05:37.206Z,998.00
2019-01-08T08:06:37.194Z,998.02
2019-01-08T08:07:37.185Z,998.00
2019-01-08T08:08:37.168Z,998.04
2019-01-08T08:09:37.162Z,998.07
2019-01-08T08:10:37.200Z,998.08
2019-01-08T08:11:37.179Z,997.99
2019-01-08T08:12:37.137Z,997.92
2019-01-08T08:13:37.143Z,997.87
2019-01-08T08:14:37.117Z,997.96
2019-01-08T08:15:37.096Z,997.88
2019-01-08T08:16:37.089Z,997.84
2019-01-08T08:17:37.077Z,997.87
2019-01-08T08:18:37.094Z,997.87
2019-01-08T08:19:37.057Z,997.89
2019-01-08T08:20:37.042Z,997.79
2019-01-08T08:21:37.031Z,997.92
2019-01-08T08:22:37.027Z,997.81
2019-01-08T08:23:37.009Z,997.80
2019-01-08T08:24:37.022Z,997.70
2019-01-08T08:25:36.996Z,997.79
2019-01-08T08:26:36.979Z,997.71
2019-01-08T08:27:36.969Z,997.77
2019-01-08T08:28:36.965Z,997.67
2019-01-08T08:29:36.950Z,997.63
2019-01-08T08:30:36.957Z,997.67
2019-01-08T08:31:36.960Z,997.56
2019-01-08T08:32:36.997Z,997.63
2019-01-08T08:33:36.979Z,997.68
2019-01-08T08:34:36.893Z,997.45
2019-01-08T08:35:36.905Z,997.47
2019-01-08T08:36:36.877Z,997.42
2019-01-08T08:37:36.862Z,997.49
2019-01-08T08:38:36.853Z,997.46
2019-01-08T08:39:36.844Z,997.47
2019-01-08T08:40:36.830Z,997.54
2019-01-08T08:41:36.835Z,997.46
2019-01-08T08:42:36.810Z,997.48
2019-01-08T08:43:36.806Z,997.43
2019-01-08T08:44:36.784Z,997.44
2019-01-08T08:45:36.794Z,997.43
2019-01-08T08:46:36.769Z,997.42
2019-01-08T08:47:36.762Z,997.45
2019-01-08T08:48:36.750Z,997.40
2019-01-08T08:49:36.736Z,997.36
2019-01-08T08:50:36.728Z,997.42
2019-01-08T08:51:36.758Z,997.42
2019-01-08T08:52:36.731Z,997.40
2019-01-08T08:53:36.733Z,997.36
2019-01-08T08:54:36.680Z,997.45
2019-01-08T08:55:36.669Z,997.46
2019-01-08T08:56:36.691Z,997.39
2019-01-08T08:57:36.659Z,997.34
2019-01-08T08:58:36.638Z,997.31
2019-01-08T08:59:36.628Z,997.34
2019-01-08T09:00:36.627Z,997.41
2019-01-08T09:01:36.611Z,997.36
2019-01-08T09:02:36.624Z,997.35
2019-01-08T09:03:36.595Z,997.42
2019-01-08T09:04:36.593Z,997.40
2019-01-08T09:05:36.561Z,997.46
2019-01-08T09:06:36.560Z,997.45
2019-01-08T09:07:36.551Z,997.38
2019-01-08T09:08:36.557Z,997.46
2019-01-08T09:09:36.521Z,997.44
2019-01-08T09:10:36.510Z,997.51
2019-01-08T09:11:36.504Z,997.49
2019-01-08T09:12:36.487Z,997.42
2019-01-08T09:13:36.486Z,997.46
2019-01-08T09:14:36.509Z,997.41
2019-01-08T09:15:36.460Z,997.51
2019-01-08T09:16:36.443Z,997.50
2019-01-08T09:17:36.433Z,997.50
2019-01-08T09:18:36.422Z,997.62
2019-01-08T09:19:36.411Z,997.64
2019-01-08T09:20:36.426Z,997.51
2019-01-08T09:21:36.439Z,997.38
2019-01-08T09:22:36.382Z,997.52
2019-01-08T09:23:36.392Z,997.45
2019-01-08T09:24:36.358Z,997.47
2019-01-08T09:25:36.368Z,997.48
2019-01-08T09:26:36.339Z,997.49
2019-01-08T09:27:36.328Z,997.53
2019-01-08T09:28:36.324Z,997.47
2019-01-08T09:29:36.334Z,997.50
2019-01-08T09:30:36.352Z,997.60
2019-01-08T09:31:36.282Z,997.63
2019-01-08T09:32:36.278Z,997.48
2019-01-08T09:33:36.266Z,997.59
2019-01-08T09:34:36.278Z,997.57
2019-01-08T09:35:36.271Z,997.60
2019-01-08T09:36:36.232Z,997.59
2019-01-08T09:37:36.220Z,997.52
2019-01-08T09:38:36.210Z,997.56
2019-01-08T09:39:36.197Z,997.50
2019-01-08T09:40:36.213Z,997.60
2019-01-08T09:41:36.201Z,997.55
2019-01-08T09:42:36.170Z,997.61
2019-01-08T09:43:36.161Z,997.58
2019-01-08T09:44:36.151Z,997.36
2019-01-08T09:45:36.163Z,997.41
2019-01-08T09:46:36.130Z,997.53
2019-01-08T09:47:36.118Z,997.57
2019-01-08T09:48:36.130Z,997.49
2019-01-08T09:49:36.095Z,997.59
2019-01-08T09:50:36.084Z,997.53
2019-01-08T09:51:36.099Z,997.54
2019-01-08T09:52:36.066Z,997.59
2019-01-08T09:53:36.053Z,997.56
2019-01-08T09:54:36.043Z,997.58
2019-01-08T09:55:36.044Z,997.52
2019-01-08T09:56:36.069Z,997.65
2019-01-08T09:57:36.085Z,997.63
2019-01-08T09:58:35.997Z,997.53
2019-01-08T09:59:36.000Z,997.51
2019-01-08T10:00:35.998Z,997.57
2019-01-08T10:01:35.969Z,997.61
2019-01-08T10:02:35.978Z,997.47
2019-01-08T10:03:35.947Z,997.63
2019-01-08T10:04:35.937Z,997.55
2019-01-08T10:05:35.934Z,997.51
2019-01-08T10:06:35.933Z,997.56
2019-01-08T10:07:35.908Z,997.66
2019-01-08T10:08:35.889Z,997.47
2019-01-08T10:09:35.884Z,997.66
2019-01-08T10:10:35.892Z,997.54
2019-01-08T10:11:35.862Z,997.51
2019-01-08T10:12:35.850Z,997.50
2019-01-08T10:13:35.843Z,997.47
2019-01-08T10:14:35.834Z,997.54
2019-01-08T10:15:35.819Z,997.57
2019-01-08T10:16:35.924Z,997.56
2019-01-08T10:17:35.823Z,997.52
2019-01-08T10:18:35.850Z,997.52
2019-01-08T10:19:35.775Z,997.53
2019-01-08T10:20:35.766Z,997.56
2019-01-08T10:21:35.751Z,997.52
2019-01-08T10:22:35.757Z,997.48
2019-01-08T10:23:35.732Z,997.53
2019-01-08T10:24:35.723Z,997.53
2019-01-08T10:25:35.713Z,997.45
2019-01-08T10:26:35.702Z,997.55
2019-01-08T10:27:35.718Z,997.45
2019-01-08T10:28:35.681Z,997.48
2019-01-08T10:29:35.685Z,997.45
2019-01-08T10:30:35.655Z,997.39
2019-01-08T10:31:35.648Z,997.44
2019-01-08T10:32:35.641Z,997.33
2019-01-08T10:33:35.647Z,997.45
2019-01-08T10:34:35.610Z,997.37
2019-01-08T10:35:35.603Z,997.47
2019-01-08T10:36:35.665Z,997.35
2019-01-08T10:37:35.596Z,997.36
2019-01-08T10:38:35.636Z,997.30
2019-01-08T10:39:35.647Z,997.36
2019-01-08T10:40:35.553Z,997.31
2019-01-08T10:41:35.556Z,997.27
2019-01-08T10:42:35.532Z,997.26
2019-01-08T10:43:35.520Z,997.29
2019-01-08T10:44:35.508Z,997.38
2019-01-08T10:45:35.505Z,997.37
2019-01-08T10:46:37.624Z,997.22
2019-01-08T10:47:35.478Z,997.26
2019-01-08T10:48:35.464Z,997.28
2019-01-08T10:49:35.450Z,997.25
2019-01-08T10:50:35.447Z,997.06
2019-01-08T10:51:35.455Z,997.13
2019-01-08T10:52:35.423Z,997.17
2019-01-08T10:53:35.409Z,997.14
2019-01-08T10:54:35.398Z,997.18
2019-01-08T10:55:35.396Z,997.19
2019-01-08T10:56:35.401Z,997.17
2019-01-08T10:57:35.372Z,997.09
2019-01-08T10:58:35.379Z,997.13
2019-01-08T10:59:35.399Z,997.10
2019-01-08T11:00:35.415Z,997.14
2019-01-08T11:01:40.524Z,997.05
2019-01-08T11:02:36.310Z,997.02
2019-01-08T11:03:35.303Z,997.11
2019-01-08T11:04:35.293Z,997.01
2019-01-08T11:05:35.287Z,996.97
2019-01-08T11:06:35.295Z,996.98
2019-01-08T11:07:35.260Z,997.09
2019-01-08T11:08:35.252Z,996.97
2019-01-08T11:09:35.243Z,997.01
2019-01-08T11:10:35.232Z,997.07
2019-01-08T11:11:35.219Z,997.06
2019-01-08T11:12:35.230Z,996.99
2019-01-08T11:13:35.200Z,996.95
2019-01-08T11:14:35.182Z,996.94
2019-01-08T11:15:35.172Z,997.04
2019-01-08T11:16:35.171Z,996.91
2019-01-08T11:17:35.181Z,997.00
2019-01-08T11:18:35.177Z,996.96
2019-01-08T11:19:35.150Z,997.06
2019-01-08T11:20:35.137Z,997.03
2019-01-08T11:21:35.165Z,996.82
2019-01-08T11:22:35.105Z,996.89
2019-01-08T11:23:35.114Z,996.90
2019-01-08T11:24:35.077Z,996.86
2019-01-08T11:25:35.071Z,996.98
2019-01-08T11:26:35.052Z,996.96
2019-01-08T11:27:35.051Z,996.92
2019-01-08T11:28:35.036Z,996.93
2019-01-08T11:29:35.056Z,997.03
2019-01-08T11:30:35.017Z,996.98
2019-01-08T11:31:35.005Z,996.90
2019-01-08T11:32:34.992Z,996.95
2019-01-08T11:33:34.978Z,996.88
2019-01-08T11:34:34.966Z,996.88
2019-01-08T11:35:42.060Z,996.78
2019-01-08T11:36:35.950Z,996.84
2019-01-08T11:37:34.941Z,996.81
2019-01-08T11:38:34.925Z,996.82
2019-01-08T11:39:34.923Z,996.76
2019-01-08T11:40:34.944Z,996.88
2019-01-08T11:41:34.915Z,996.80
2019-01-08T11:42:34.943Z,996.93
2019-01-08T11:43:34.893Z,996.92
2019-01-08T11:44:34.865Z,997.02
2019-01-08T11:45:34.881Z,997.05
2019-01-08T11:46:34.837Z,996.87
2019-01-08T11:47:34.830Z,996.58
2019-01-08T11:48:34.824Z,997.04
2019-01-08T11:49:35.400Z,997.06
2019-01-08T11:50:34.803Z,997.03
2019-01-08T11:51:34.806Z,997.17
2019-01-08T11:52:34.778Z,997.18
2019-01-08T11:53:36.640Z,997.12
2019-01-08T11:54:40.845Z,997.11
2019-01-08T11:55:35.758Z,997.06
2019-01-08T11:56:34.755Z,996.91
2019-01-08T11:57:34.719Z,997.00
2019-01-08T11:58:34.727Z,997.01
2019-01-08T11:59:34.706Z,996.93
2019-01-08T12:00:34.693Z,996.99
2019-01-08T12:01:34.683Z,997.08
2019-01-08T12:02:34.722Z,997.05
2019-01-08T12:03:34.723Z,997.02
2019-01-08T12:04:34.647Z,997.04
2019-01-08T12:05:34.635Z,997.02
2019-01-08T12:06:34.622Z,996.93
2019-01-08T12:07:34.638Z,997.00
2019-01-08T12:08:34.608Z,997.11
2019-01-08T12:09:34.597Z,997.14
2019-01-08T12:10:34.578Z,997.00
2019-01-08T12:11:34.569Z,996.94
2019-01-08T12:12:34.564Z,997.04
2019-01-08T12:13:34.605Z,997.01
2019-01-08T12:14:34.542Z,997.08
2019-01-08T12:15:34.529Z,997.04
2019-01-08T12:16:34.517Z,997.02
2019-01-08T12:17:34.503Z,996.98
2019-01-08T12:18:34.533Z,996.84
2019-01-08T12:19:34.488Z,996.90
2019-01-08T12:20:34.480Z,996.94